createdAt,value
2022-12-01T00:00:10.642Z,1019.23
2022-12-01T00:00:44.746Z,1019.23
2022-12-01T00:01:16.313Z,1019.44
2022-12-01T00:01:49.052Z,1019.44
2022-12-01T00:02:21.105Z,1019.03
2022-12-01T00:02:43.775Z,1019.23
2022-12-01T00:03:06.790Z,1019.23
2022-12-01T00:03:41.213Z,1019.23
2022-12-01T00:04:12.687Z,1019.23
2022-12-01T00:04:45.596Z,1019.23
2022-12-01T00:05:16.713Z,1019.23
2022-12-01T00:05:49.331Z,1019.23
2022-12-01T00:06:21.890Z,1019.23
2022-12-01T00:06:45.818Z,1019.34
2022-12-01T00:07:08.160Z,1019.34
2022-12-01T00:07:41.181Z,1019.34
2022-12-01T00:08:12.741Z,1019.23
2022-12-01T00:08:45.045Z,1019.23
2022-12-01T00:09:19.890Z,1019.13
2022-12-01T00:09:50.408Z,1019.13
2022-12-01T00:10:21.895Z,1019.23
2022-12-01T00:10:44.656Z,1019.44
2022-12-01T00:11:07.633Z,1019.44
2022-12-01T00:11:42.173Z,1019.34
2022-12-01T00:12:13.008Z,1019.34
2022-12-01T00:12:44.873Z,1019.34
2022-12-01T00:13:16.548Z,1019.44
2022-12-01T00:13:49.452Z,1019.44
2022-12-01T00:14:20.799Z,1019.44
2022-12-01T00:14:43.515Z,1019.23
2022-12-01T00:15:07.037Z,1019.23
2022-12-01T00:15:42.205Z,1019.13
2022-12-01T00:16:13.539Z,1019.13
2022-12-01T00:16:45.297Z,1019.13
2022-12-01T00:17:17.132Z,1019.23
2022-12-01T00:17:48.628Z,1019.23
2022-12-01T00:18:20.864Z,1019.34
2022-12-01T00:18:43.450Z,1019.34
2022-12-01T00:19:06.378Z,1019.34
2022-12-01T00:19:42.847Z,1019.23
2022-12-01T00:20:13.446Z,1019.23
2022-12-01T00:20:45.003Z,1019.23
2022-12-01T00:21:16.235Z,1019.34
2022-12-01T00:21:50.307Z,1019.34
2022-12-01T00:22:23.090Z,1019.23
2022-12-01T00:22:46.175Z,1019.34
2022-12-01T00:23:08.443Z,1019.34
2022-12-01T00:23:42.033Z,1019.34
2022-12-01T00:24:12.830Z,1019.23
2022-12-01T00:24:44.762Z,1019.23
2022-12-01T00:25:16.531Z,1019.34
2022-12-01T00:25:48.814Z,1019.34
2022-12-01T00:26:20.996Z,1019.34
2022-12-01T00:26:43.555Z,1019.44
2022-12-01T00:27:06.235Z,1019.44
2022-12-01T00:27:41.491Z,1019.44
2022-12-01T00:28:13.356Z,1019.34
2022-12-01T00:28:44.688Z,1019.34
2022-12-01T00:29:16.273Z,1019.23
2022-12-01T00:29:48.890Z,1019.23
2022-12-01T00:30:20.732Z,1019.23
2022-12-01T00:30:43.436Z,1019.13
2022-12-01T00:31:06.414Z,1019.13
2022-12-01T00:31:40.909Z,1019.13
2022-12-01T00:32:13.208Z,1019.13
2022-12-01T00:32:45.014Z,1019.13
2022-12-01T00:33:16.844Z,1019.34
2022-12-01T00:33:49.314Z,1019.34
2022-12-01T00:34:21.390Z,1018.93
2022-12-01T00:34:44.121Z,1019.13
2022-12-01T00:35:08.293Z,1019.13
2022-12-01T00:35:41.113Z,1019.13
2022-12-01T00:36:12.732Z,1019.03
2022-12-01T00:36:44.838Z,1019.03
2022-12-01T00:37:16.344Z,1019.34
2022-12-01T00:37:48.824Z,1019.34
2022-12-01T00:38:22.540Z,1019.03
2022-12-01T00:38:43.720Z,1019.13
2022-12-01T00:39:08.083Z,1019.13
2022-12-01T00:39:41.013Z,1019.13
2022-12-01T00:40:13.009Z,1019.13
2022-12-01T00:40:44.607Z,1019.13
2022-12-01T00:41:16.642Z,1019.23
2022-12-01T00:41:48.765Z,1019.23
2022-12-01T00:42:21.451Z,1019.13
2022-12-01T00:42:43.528Z,1019.23
2022-12-01T00:43:06.648Z,1019.23
2022-12-01T00:43:45.017Z,1019.23
2022-12-01T00:44:12.709Z,1019.23
2022-12-01T00:44:45.161Z,1019.23
2022-12-01T00:45:16.401Z,1019.13
2022-12-01T00:45:48.928Z,1019.13
2022-12-01T00:46:20.844Z,1019.23
2022-12-01T00:46:43.644Z,1019.34
2022-12-01T00:47:05.913Z,1019.34
2022-12-01T00:47:40.793Z,1019.34
2022-12-01T00:48:12.625Z,1019.13
2022-12-01T00:48:44.840Z,1019.13
2022-12-01T00:49:16.504Z,1019.23
2022-12-01T00:49:49.521Z,1019.23
2022-12-01T00:50:21.283Z,1019.34
2022-12-01T00:50:43.691Z,1019.34
2022-12-01T00:51:06.737Z,1019.34
2022-12-01T00:51:41.101Z,1019.34
2022-12-01T00:52:12.730Z,1018.93
2022-12-01T00:52:44.700Z,1018.93
2022-12-01T00:53:17.200Z,1019.13
2022-12-01T00:53:49.354Z,1019.13
2022-12-01T00:54:20.848Z,1019.13
2022-12-01T00:54:43.366Z,1019.23
2022-12-01T00:55:06.749Z,1019.23
2022-12-01T00:55:42.188Z,1019.23
2022-12-01T00:56:13.192Z,1019.23
2022-12-01T00:56:45.221Z,1019.23
2022-12-01T00:57:16.870Z,1019.23
2022-12-01T00:57:48.658Z,1019.23
2022-12-01T00:58:21.526Z,1019.34
2022-12-01T00:58:44.400Z,1019.23
2022-12-01T00:59:06.857Z,1019.23
2022-12-01T00:59:44.044Z,1019.34
2022-12-01T01:00:06.734Z,1019.34
2022-12-01T01:00:45.224Z,1019.34
2022-12-01T01:01:16.337Z,1019.34
2022-12-01T01:01:54.168Z,1019.34
2022-12-01T01:02:20.934Z,1019.34
2022-12-01T01:02:43.663Z,1019.23
2022-12-01T01:03:06.229Z,1019.23
2022-12-01T01:03:40.712Z,1019.23
2022-12-01T01:04:12.569Z,1019.34
2022-12-01T01:04:44.855Z,1019.34
2022-12-01T01:05:16.280Z,1019.13
2022-12-01T01:05:48.641Z,1019.13
2022-12-01T01:06:20.676Z,1019.44
2022-12-01T01:06:44.420Z,1019.44
2022-12-01T01:07:07.000Z,1019.44
2022-12-01T01:07:40.781Z,1019.44
2022-12-01T01:08:12.730Z,1019.13
2022-12-01T01:08:44.581Z,1019.13
2022-12-01T01:09:16.388Z,1019.44
2022-12-01T01:09:49.310Z,1019.44
2022-12-01T01:10:21.141Z,1019.34
2022-12-01T01:10:43.949Z,1019.44
2022-12-01T01:11:06.193Z,1019.44
2022-12-01T01:11:40.707Z,1019.44
2022-12-01T01:12:12.938Z,1019.23
2022-12-01T01:12:44.836Z,1019.23
2022-12-01T01:13:16.358Z,1019.34
2022-12-01T01:13:48.742Z,1019.34
2022-12-01T01:14:20.838Z,1019.44
2022-12-01T01:14:44.197Z,1019.44
2022-12-01T01:15:06.878Z,1019.44
2022-12-01T01:15:40.724Z,1019.44
2022-12-01T01:16:14.179Z,1019.54
2022-12-01T01:16:44.776Z,1019.54
2022-12-01T01:17:16.207Z,1019.34
2022-12-01T01:17:48.621Z,1019.34
2022-12-01T01:18:20.586Z,1019.44
2022-12-01T01:18:43.235Z,1019.34
2022-12-01T01:19:05.766Z,1019.34
2022-12-01T01:19:41.107Z,1019.34
2022-12-01T01:20:13.604Z,1019.23
2022-12-01T01:20:44.738Z,1019.23
2022-12-01T01:21:16.278Z,1019.44
2022-12-01T01:21:48.681Z,1019.44
2022-12-01T01:22:20.717Z,1019.54
2022-12-01T01:22:43.517Z,1019.34
2022-12-01T01:23:05.853Z,1019.34
2022-12-01T01:23:40.799Z,1019.34
2022-12-01T01:24:12.737Z,1019.44
2022-12-01T01:24:49.080Z,1019.44
2022-12-01T01:25:16.279Z,1019.54
2022-12-01T01:25:49.303Z,1019.54
2022-12-01T01:26:20.812Z,1019.54
2022-12-01T01:26:43.601Z,1019.44
2022-12-01T01:27:06.062Z,1019.44
2022-12-01T01:27:42.100Z,1019.44
2022-12-01T01:28:12.663Z,1019.64
2022-12-01T01:28:44.695Z,1019.64
2022-12-01T01:29:16.271Z,1019.54
2022-12-01T01:29:48.867Z,1019.54
2022-12-01T01:30:20.839Z,1019.54
2022-12-01T01:30:44.440Z,1019.74
2022-12-01T01:31:09.544Z,1019.74
2022-12-01T01:31:41.036Z,1019.74
2022-12-01T01:32:12.742Z,1019.64
2022-12-01T01:32:44.856Z,1019.64
2022-12-01T01:33:16.306Z,1019.64
2022-12-01T01:33:48.820Z,1019.64
2022-12-01T01:34:20.583Z,1019.44
2022-12-01T01:34:43.310Z,1019.44
2022-12-01T01:35:05.818Z,1019.44
2022-12-01T01:35:40.707Z,1019.44
2022-12-01T01:36:12.602Z,1019.54
2022-12-01T01:36:44.735Z,1019.54
2022-12-01T01:37:16.280Z,1019.54
2022-12-01T01:37:48.742Z,1019.54
2022-12-01T01:38:20.823Z,1019.44
2022-12-01T01:38:43.379Z,1019.44
2022-12-01T01:39:05.806Z,1019.44
2022-12-01T01:39:41.171Z,1019.44
2022-12-01T01:40:15.266Z,1019.54
2022-12-01T01:40:44.670Z,1019.54
2022-12-01T01:41:17.806Z,1019.64
2022-12-01T01:41:50.161Z,1019.64
2022-12-01T01:42:21.332Z,1019.44
2022-12-01T01:42:43.890Z,1019.74
2022-12-01T01:43:06.443Z,1019.74
2022-12-01T01:43:41.178Z,1019.74
2022-12-01T01:44:13.104Z,1019.54
2022-12-01T01:44:44.901Z,1019.54
2022-12-01T01:45:16.453Z,1019.74
2022-12-01T01:45:48.728Z,1019.74
2022-12-01T01:46:20.896Z,1019.44
2022-12-01T01:46:44.384Z,1019.54
2022-12-01T01:47:06.506Z,1019.54
2022-12-01T01:47:40.640Z,1019.54
2022-12-01T01:48:12.710Z,1019.64
2022-12-01T01:48:46.167Z,1019.64
2022-12-01T01:49:16.244Z,1019.54
2022-12-01T01:49:49.018Z,1019.54
2022-12-01T01:50:20.701Z,1019.44
2022-12-01T01:50:43.274Z,1019.64
2022-12-01T01:51:05.587Z,1019.64
2022-12-01T01:51:40.793Z,1019.64
2022-12-01T01:52:12.794Z,1019.54
2022-12-01T01:52:44.679Z,1019.54
2022-12-01T01:53:16.256Z,1019.54
2022-12-01T01:53:48.720Z,1019.54
2022-12-01T01:54:20.601Z,1019.54
2022-12-01T01:54:43.955Z,1019.54
2022-12-01T01:55:06.383Z,1019.54
2022-12-01T01:55:40.585Z,1019.54
2022-12-01T01:56:12.650Z,1019.64
2022-12-01T01:56:44.722Z,1019.64
2022-12-01T01:57:16.384Z,1019.64
2022-12-01T01:57:48.706Z,1019.64
2022-12-01T01:58:21.013Z,1019.44
2022-12-01T01:58:43.622Z,1019.81
2022-12-01T01:59:06.537Z,1019.81
2022-12-01T01:59:40.692Z,1019.81
2022-12-01T02:00:13.008Z,1019.64
2022-12-01T02:00:44.592Z,1019.64
2022-12-01T02:01:16.392Z,1019.74
2022-12-01T02:01:48.755Z,1019.74
2022-12-01T02:02:20.766Z,1019.64
2022-12-01T02:02:44.204Z,1019.54
2022-12-01T02:03:06.444Z,1019.54
2022-12-01T02:03:40.702Z,1019.54
2022-12-01T02:04:12.562Z,1019.44
2022-12-01T02:04:45.112Z,1019.44
2022-12-01T02:05:16.440Z,1019.54
2022-12-01T02:05:49.063Z,1019.54
2022-12-01T02:06:21.114Z,1019.44
2022-12-01T02:06:43.356Z,1019.74
2022-12-01T02:07:05.802Z,1019.74
2022-12-01T02:07:40.809Z,1019.74
2022-12-01T02:08:12.701Z,1019.74
2022-12-01T02:08:44.609Z,1019.74
2022-12-01T02:09:16.395Z,1019.64
2022-12-01T02:09:49.510Z,1019.64
2022-12-01T02:10:20.530Z,1019.64
2022-12-01T02:10:44.241Z,1019.54
2022-12-01T02:11:06.571Z,1019.54
2022-12-01T02:11:40.696Z,1019.54
2022-12-01T02:12:13.089Z,1019.44
2022-12-01T02:12:44.659Z,1019.44
2022-12-01T02:13:16.733Z,1019.54
2022-12-01T02:13:48.688Z,1019.54
2022-12-01T02:14:20.642Z,1019.64
2022-12-01T02:14:43.267Z,1019.54
2022-12-01T02:15:05.895Z,1019.54
2022-12-01T02:15:40.975Z,1019.54
2022-12-01T02:16:13.001Z,1019.64
2022-12-01T02:16:40.429Z,1019.64
2022-12-01T02:17:17.033Z,1019.44
2022-12-01T02:17:49.083Z,1019.44
2022-12-01T02:18:21.441Z,1019.64
2022-12-01T02:18:45.126Z,1019.44
2022-12-01T02:19:06.753Z,1019.44
2022-12-01T02:19:48.900Z,1019.64
2022-12-01T02:20:10.737Z,1019.64
2022-12-01T02:20:44.774Z,1019.64
2022-12-01T02:21:16.299Z,1019.64
2022-12-01T02:21:48.699Z,1019.64
2022-12-01T02:22:21.118Z,1019.74
2022-12-01T02:22:43.575Z,1019.54
2022-12-01T02:23:05.857Z,1019.54
2022-12-01T02:23:40.791Z,1019.54
2022-12-01T02:24:12.720Z,1019.64
2022-12-01T02:24:44.655Z,1019.64
2022-12-01T02:25:16.370Z,1019.54
2022-12-01T02:25:48.724Z,1019.54
2022-12-01T02:26:20.756Z,1019.64
2022-12-01T02:26:43.731Z,1019.64
2022-12-01T02:27:05.964Z,1019.64
2022-12-01T02:27:40.683Z,1019.64
2022-12-01T02:28:12.735Z,1019.64
2022-12-01T02:28:44.603Z,1019.64
2022-12-01T02:29:17.890Z,1019.64
2022-12-01T02:29:49.167Z,1019.64
2022-12-01T02:30:20.781Z,1019.74
2022-12-01T02:30:47.268Z,1019.54
2022-12-01T02:31:24.810Z,1019.54
2022-12-01T02:31:49.221Z,1019.64
2022-12-01T02:32:11.533Z,1019.64
2022-12-01T02:32:44.652Z,1019.64
2022-12-01T02:33:16.319Z,1019.74
2022-12-01T02:33:48.695Z,1019.74
2022-12-01T02:34:20.571Z,1019.54
2022-12-01T02:34:43.074Z,1019.64
2022-12-01T02:35:05.339Z,1019.64
2022-12-01T02:35:40.718Z,1019.64
2022-12-01T02:36:12.612Z,1019.44
2022-12-01T02:36:44.653Z,1019.44
2022-12-01T02:37:16.243Z,1019.64
2022-12-01T02:37:48.971Z,1019.64
2022-12-01T02:38:20.978Z,1019.64
2022-12-01T02:38:43.919Z,1019.34
2022-12-01T02:39:07.786Z,1019.34
2022-12-01T02:39:40.544Z,1019.34
2022-12-01T02:40:12.535Z,1019.23
2022-12-01T02:40:44.770Z,1019.23
2022-12-01T02:41:16.309Z,1019.54
2022-12-01T02:41:49.142Z,1019.54
2022-12-01T02:42:20.831Z,1019.54
2022-12-01T02:42:43.652Z,1019.81
2022-12-01T02:43:05.874Z,1019.81
2022-12-01T02:43:40.717Z,1019.81
2022-12-01T02:44:12.733Z,1019.54
2022-12-01T02:44:44.572Z,1019.54
2022-12-01T02:45:16.364Z,1019.44
2022-12-01T02:45:48.598Z,1019.44
2022-12-01T02:46:20.711Z,1019.54
2022-12-01T02:46:43.962Z,1019.44
2022-12-01T02:47:06.189Z,1019.44
2022-12-01T02:47:40.662Z,1019.44
2022-12-01T02:48:13.059Z,1019.44
2022-12-01T02:48:44.821Z,1019.44
2022-12-01T02:49:16.759Z,1019.74
2022-12-01T02:49:48.843Z,1019.74
2022-12-01T02:50:21.050Z,1019.44
2022-12-01T02:50:43.807Z,1019.64
2022-12-01T02:51:06.088Z,1019.64
2022-12-01T02:51:40.657Z,1019.64
2022-12-01T02:52:12.582Z,1019.34
2022-12-01T02:52:44.701Z,1019.34
2022-12-01T02:53:16.334Z,1019.34
2022-12-01T02:53:48.689Z,1019.34
2022-12-01T02:54:20.578Z,1019.23
2022-12-01T02:54:43.443Z,1019.44
2022-12-01T02:55:05.783Z,1019.44
2022-12-01T02:55:40.716Z,1019.44
2022-12-01T02:56:13.153Z,1019.54
2022-12-01T02:56:39.635Z,1019.54
2022-12-01T02:57:19.536Z,1019.34
2022-12-01T02:57:48.763Z,1019.34
2022-12-01T02:58:21.098Z,1019.54
2022-12-01T02:58:43.710Z,1019.74
2022-12-01T02:59:06.225Z,1019.74
2022-12-01T02:59:41.249Z,1019.74
2022-12-01T03:00:20.557Z,1019.44
2022-12-01T03:00:45.581Z,1019.44
2022-12-01T03:01:17.482Z,1019.44
2022-12-01T03:01:48.752Z,1019.44
2022-12-01T03:02:25.479Z,1019.44
2022-12-01T03:02:43.705Z,1019.54
2022-12-01T03:03:07.693Z,1019.54
2022-12-01T03:03:40.711Z,1019.54
2022-12-01T03:04:13.499Z,1019.64
2022-12-01T03:04:44.661Z,1019.64
2022-12-01T03:05:16.520Z,1019.54
2022-12-01T03:05:48.564Z,1019.54
2022-12-01T03:06:27.210Z,1019.54
2022-12-01T03:06:43.647Z,1019.44
2022-12-01T03:07:06.325Z,1019.44
2022-12-01T03:07:41.345Z,1019.44
2022-12-01T03:08:12.643Z,1019.54
2022-12-01T03:08:44.762Z,1019.54
2022-12-01T03:09:16.397Z,1019.44
2022-12-01T03:09:49.396Z,1019.44
2022-12-01T03:10:22.254Z,1019.64
2022-12-01T03:10:44.762Z,1019.64
2022-12-01T03:11:08.740Z,1019.64
2022-12-01T03:11:42.072Z,1019.64
2022-12-01T03:12:13.053Z,1019.74
2022-12-01T03:12:46.099Z,1019.74
2022-12-01T03:13:16.952Z,1019.54
2022-12-01T03:13:49.587Z,1019.54
2022-12-01T03:14:21.216Z,1019.54
2022-12-01T03:14:49.456Z,1019.64
2022-12-01T03:15:06.540Z,1019.64
2022-12-01T03:15:44.534Z,1019.44
2022-12-01T03:16:07.196Z,1019.44
2022-12-01T03:16:44.863Z,1019.44
2022-12-01T03:17:16.464Z,1019.44
2022-12-01T03:17:48.676Z,1019.44
2022-12-01T03:18:21.320Z,1019.64
2022-12-01T03:18:44.495Z,1019.44
2022-12-01T03:19:06.854Z,1019.44
2022-12-01T03:19:43.164Z,1019.44
2022-12-01T03:20:13.002Z,1019.54
2022-12-01T03:20:44.485Z,1019.54
2022-12-01T03:21:16.571Z,1019.54
2022-12-01T03:21:48.568Z,1019.54
2022-12-01T03:22:20.556Z,1019.54
2022-12-01T03:22:43.061Z,1019.74
2022-12-01T03:23:05.473Z,1019.74
2022-12-01T03:23:40.861Z,1019.74
2022-12-01T03:24:12.679Z,1019.64
2022-12-01T03:24:45.138Z,1019.64
2022-12-01T03:25:16.307Z,1019.44
2022-12-01T03:25:48.692Z,1019.44
2022-12-01T03:26:21.139Z,1019.44
2022-12-01T03:26:43.467Z,1019.54
2022-12-01T03:27:05.821Z,1019.54
2022-12-01T03:27:44.154Z,1019.54
2022-12-01T03:28:21.495Z,1019.44
2022-12-01T03:28:44.747Z,1019.44
2022-12-01T03:29:16.451Z,1019.74
2022-12-01T03:29:48.989Z,1019.74
2022-12-01T03:30:20.697Z,1019.44
2022-12-01T03:30:43.575Z,1019.34
2022-12-01T03:31:05.823Z,1019.34
2022-12-01T03:31:40.932Z,1019.34
2022-12-01T03:32:12.771Z,1019.54
2022-12-01T03:32:44.658Z,1019.54
2022-12-01T03:33:16.361Z,1019.64
2022-12-01T03:33:49.049Z,1019.64
2022-12-01T03:34:20.730Z,1019.34
2022-12-01T03:34:43.386Z,1019.64
2022-12-01T03:35:05.772Z,1019.64
2022-12-01T03:35:40.642Z,1019.64
2022-12-01T03:36:12.519Z,1019.54
2022-12-01T03:36:44.963Z,1019.54
2022-12-01T03:37:16.467Z,1019.54
2022-12-01T03:37:48.584Z,1019.54
2022-12-01T03:38:20.610Z,1019.54
2022-12-01T03:38:43.558Z,1019.44
2022-12-01T03:39:05.931Z,1019.44
2022-12-01T03:39:40.781Z,1019.44
2022-12-01T03:40:12.548Z,1019.74
2022-12-01T03:40:44.514Z,1019.74
2022-12-01T03:41:16.425Z,1019.54
2022-12-01T03:41:48.673Z,1019.54
2022-12-01T03:42:20.600Z,1019.44
2022-12-01T03:42:44.523Z,1019.64
2022-12-01T03:43:06.772Z,1019.64
2022-12-01T03:43:40.798Z,1019.64
2022-12-01T03:44:12.487Z,1019.44
2022-12-01T03:44:48.160Z,1019.44
2022-12-01T03:45:16.905Z,1019.54
2022-12-01T03:45:48.602Z,1019.54
2022-12-01T03:46:20.587Z,1019.34
2022-12-01T03:46:43.356Z,1019.64
2022-12-01T03:47:05.731Z,1019.64
2022-12-01T03:47:40.719Z,1019.64
2022-12-01T03:48:12.871Z,1019.54
2022-12-01T03:48:46.029Z,1019.54
2022-12-01T03:49:16.291Z,1019.44
2022-12-01T03:49:48.897Z,1019.44
2022-12-01T03:50:20.950Z,1019.23
2022-12-01T03:50:43.819Z,1019.54
2022-12-01T03:51:05.932Z,1019.54
2022-12-01T03:51:40.650Z,1019.54
2022-12-01T03:52:12.649Z,1019.64
2022-12-01T03:52:45.138Z,1019.64
2022-12-01T03:53:16.325Z,1019.34
2022-12-01T03:53:48.657Z,1019.34
2022-12-01T03:54:20.686Z,1019.34
2022-12-01T03:54:43.769Z,1019.44
2022-12-01T03:55:06.624Z,1019.44
2022-12-01T03:55:40.708Z,1019.44
2022-12-01T03:56:16.160Z,1019.23
2022-12-01T03:56:44.694Z,1019.23
2022-12-01T03:57:16.592Z,1019.54
2022-12-01T03:57:48.583Z,1019.54
2022-12-01T03:58:20.492Z,1019.44
2022-12-01T03:58:44.687Z,1019.34
2022-12-01T03:59:06.920Z,1019.34
2022-12-01T03:59:40.584Z,1019.34
2022-12-01T04:00:13.111Z,1019.23
2022-12-01T04:00:44.541Z,1019.23
2022-12-01T04:01:16.791Z,1019.64
2022-12-01T04:01:48.813Z,1019.64
2022-12-01T04:02:20.874Z,1019.23
2022-12-01T04:02:44.835Z,1019.44
2022-12-01T04:03:07.132Z,1019.44
2022-12-01T04:03:40.500Z,1019.44
2022-12-01T04:04:12.658Z,1019.44
2022-12-01T04:04:44.734Z,1019.44
2022-12-01T04:05:19.950Z,1019.64
2022-12-01T04:05:48.537Z,1019.64
2022-12-01T04:06:20.743Z,1019.54
2022-12-01T04:06:43.891Z,1019.54
2022-12-01T04:07:06.203Z,1019.54
2022-12-01T04:07:40.723Z,1019.54
2022-12-01T04:08:12.742Z,1019.64
2022-12-01T04:08:44.628Z,1019.64
2022-12-01T04:09:16.405Z,1019.44
2022-12-01T04:09:52.053Z,1019.44
2022-12-01T04:10:20.621Z,1019.44
2022-12-01T04:10:43.887Z,1019.44
2022-12-01T04:11:06.283Z,1019.44
2022-12-01T04:11:42.142Z,1019.44
2022-12-01T04:12:18.097Z,1019.74
2022-12-01T04:12:44.994Z,1019.74
2022-12-01T04:13:16.340Z,1019.64
2022-12-01T04:13:49.044Z,1019.64
2022-12-01T04:14:20.603Z,1019.54
2022-12-01T04:14:43.875Z,1019.44
2022-12-01T04:15:06.384Z,1019.44
2022-12-01T04:15:41.012Z,1019.44
2022-12-01T04:16:12.805Z,1019.64
2022-12-01T04:16:44.620Z,1019.64
2022-12-01T04:17:16.342Z,1019.64
2022-12-01T04:17:48.831Z,1019.64
2022-12-01T04:18:20.823Z,1019.54
2022-12-01T04:18:44.341Z,1019.54
2022-12-01T04:19:06.423Z,1019.54
2022-12-01T04:19:40.919Z,1019.54
2022-12-01T04:20:12.898Z,1019.44
2022-12-01T04:20:44.480Z,1019.44
2022-12-01T04:21:16.271Z,1019.74
2022-12-01T04:21:48.596Z,1019.74
2022-12-01T04:22:21.160Z,1019.64
2022-12-01T04:22:43.642Z,1019.54
2022-12-01T04:23:06.052Z,1019.54
2022-12-01T04:23:40.657Z,1019.54
2022-12-01T04:24:12.611Z,1019.74
2022-12-01T04:24:44.727Z,1019.74
2022-12-01T04:25:16.405Z,1019.54
2022-12-01T04:25:48.485Z,1019.54
2022-12-01T04:26:21.009Z,1019.54
2022-12-01T04:26:44.772Z,1019.54
2022-12-01T04:27:07.249Z,1019.54
2022-12-01T04:27:40.684Z,1019.54
2022-12-01T04:28:12.599Z,1019.44
2022-12-01T04:28:44.545Z,1019.44
2022-12-01T04:29:16.444Z,1019.54
2022-12-01T04:29:49.034Z,1019.54
2022-12-01T04:30:27.091Z,1019.44
2022-12-01T04:30:43.545Z,1019.54
2022-12-01T04:31:05.946Z,1019.54
2022-12-01T04:31:40.590Z,1019.54
2022-12-01T04:32:12.792Z,1019.54
2022-12-01T04:32:44.502Z,1019.54
2022-12-01T04:33:16.792Z,1019.34
2022-12-01T04:33:48.717Z,1019.34
2022-12-01T04:34:20.666Z,1019.64
2022-12-01T04:34:43.531Z,1019.54
2022-12-01T04:35:05.943Z,1019.54
2022-12-01T04:35:40.595Z,1019.54
2022-12-01T04:36:12.667Z,1019.74
2022-12-01T04:36:44.574Z,1019.74
2022-12-01T04:37:16.311Z,1019.64
2022-12-01T04:37:48.604Z,1019.64
2022-12-01T04:38:20.812Z,1019.54
2022-12-01T04:38:43.356Z,1019.44
2022-12-01T04:39:05.633Z,1019.44
2022-12-01T04:39:40.860Z,1019.44
2022-12-01T04:40:12.624Z,1019.64
2022-12-01T04:40:44.739Z,1019.64
2022-12-01T04:41:16.449Z,1019.64
2022-12-01T04:41:50.155Z,1019.64
2022-12-01T04:42:20.736Z,1019.44
2022-12-01T04:42:44.019Z,1019.44
2022-12-01T04:43:06.379Z,1019.44
2022-12-01T04:43:40.730Z,1019.44
2022-12-01T04:44:12.642Z,1019.44
2022-12-01T04:44:44.743Z,1019.44
2022-12-01T04:45:16.406Z,1019.54
2022-12-01T04:45:48.793Z,1019.54
2022-12-01T04:46:20.559Z,1019.44
2022-12-01T04:46:43.317Z,1019.54
2022-12-01T04:47:05.752Z,1019.54
2022-12-01T04:47:40.646Z,1019.54
2022-12-01T04:48:12.529Z,1019.44
2022-12-01T04:48:46.043Z,1019.44
2022-12-01T04:49:16.377Z,1019.44
2022-12-01T04:49:48.851Z,1019.44
2022-12-01T04:50:20.664Z,1019.64
2022-12-01T04:50:44.307Z,1019.54
2022-12-01T04:51:06.578Z,1019.54
2022-12-01T04:51:40.753Z,1019.54
2022-12-01T04:52:12.896Z,1019.64
2022-12-01T04:52:44.760Z,1019.64
2022-12-01T04:53:16.347Z,1019.44
2022-12-01T04:53:48.655Z,1019.44
2022-12-01T04:54:20.552Z,1019.54
2022-12-01T04:54:43.225Z,1019.44
2022-12-01T04:55:05.569Z,1019.44
2022-12-01T04:55:40.815Z,1019.44
2022-12-01T04:56:12.629Z,1019.34
2022-12-01T04:56:44.656Z,1019.34
2022-12-01T04:57:16.385Z,1019.44
2022-12-01T04:57:48.715Z,1019.44
2022-12-01T04:58:20.525Z,1019.64
2022-12-01T04:58:43.486Z,1019.54
2022-12-01T04:59:05.880Z,1019.54
2022-12-01T04:59:40.579Z,1019.54
2022-12-01T05:00:12.684Z,1019.54
2022-12-01T05:00:44.846Z,1019.54
2022-12-01T05:01:16.533Z,1019.44
2022-12-01T05:01:48.598Z,1019.44
2022-12-01T05:02:20.769Z,1019.54
2022-12-01T05:02:43.262Z,1019.64
2022-12-01T05:03:07.694Z,1019.64
2022-12-01T05:03:40.840Z,1019.64
2022-12-01T05:04:12.770Z,1019.23
2022-12-01T05:04:44.751Z,1019.23
2022-12-01T05:05:16.346Z,1019.34
2022-12-01T05:05:48.507Z,1019.34
2022-12-01T05:06:21.711Z,1019.64
2022-12-01T05:06:44.145Z,1019.54
2022-12-01T05:07:06.738Z,1019.54
2022-12-01T05:07:40.585Z,1019.54
2022-12-01T05:08:12.699Z,1019.44
2022-12-01T05:08:44.775Z,1019.44
2022-12-01T05:09:17.674Z,1019.54
2022-12-01T05:09:48.834Z,1019.54
2022-12-01T05:10:20.611Z,1019.54
2022-12-01T05:10:43.552Z,1019.64
2022-12-01T05:11:06.038Z,1019.64
2022-12-01T05:11:40.655Z,1019.64
2022-12-01T05:12:12.685Z,1019.44
2022-12-01T05:12:44.652Z,1019.44
2022-12-01T05:13:16.799Z,1019.74
2022-12-01T05:13:48.716Z,1019.74
2022-12-01T05:14:20.541Z,1019.81
2022-12-01T05:14:44.237Z,1019.64
2022-12-01T05:15:06.883Z,1019.64
2022-12-01T05:15:40.878Z,1019.64
2022-12-01T05:16:12.629Z,1019.64
2022-12-01T05:16:44.744Z,1019.64
2022-12-01T05:17:16.343Z,1019.74
2022-12-01T05:17:48.659Z,1019.74
2022-12-01T05:18:20.757Z,1019.64
2022-12-01T05:18:43.809Z,1019.54
2022-12-01T05:19:05.950Z,1019.54
2022-12-01T05:19:42.150Z,1019.54
2022-12-01T05:20:12.757Z,1019.54
2022-12-01T05:20:44.665Z,1019.54
2022-12-01T05:21:16.439Z,1019.74
2022-12-01T05:21:48.620Z,1019.74
2022-12-01T05:22:42.563Z,1019.54
2022-12-01T05:23:12.295Z,1019.74
2022-12-01T05:23:41.426Z,1019.74
2022-12-01T05:24:12.823Z,1019.64
2022-12-01T05:24:44.952Z,1019.64
2022-12-01T05:25:16.783Z,1019.74
2022-12-01T05:25:49.292Z,1019.74
2022-12-01T05:26:21.194Z,1019.74
2022-12-01T05:26:43.742Z,1019.64
2022-12-01T05:27:06.878Z,1019.64
2022-12-01T05:27:40.630Z,1019.64
2022-12-01T05:28:12.615Z,1019.54
2022-12-01T05:28:44.621Z,1019.54
2022-12-01T05:29:16.523Z,1019.64
2022-12-01T05:29:48.671Z,1019.64
2022-12-01T05:30:24.369Z,1019.54
2022-12-01T05:30:43.585Z,1019.44
2022-12-01T05:31:07.149Z,1019.44
2022-12-01T05:31:40.706Z,1019.44
2022-12-01T05:32:12.782Z,1019.64
2022-12-01T05:32:45.332Z,1019.64
2022-12-01T05:33:16.552Z,1019.54
2022-12-01T05:33:49.265Z,1019.54
2022-12-01T05:34:21.629Z,1019.64
2022-12-01T05:34:44.364Z,1019.74
2022-12-01T05:35:06.972Z,1019.74
2022-12-01T05:35:40.951Z,1019.74
2022-12-01T05:36:13.049Z,1019.54
2022-12-01T05:36:44.581Z,1019.54
2022-12-01T05:37:16.518Z,1019.54
2022-12-01T05:37:48.801Z,1019.54
2022-12-01T05:38:20.900Z,1019.74
2022-12-01T05:38:43.620Z,1019.74
2022-12-01T05:39:06.055Z,1019.74
2022-12-01T05:39:41.854Z,1019.74
2022-12-01T05:40:13.134Z,1019.81
2022-12-01T05:40:44.602Z,1019.81
2022-12-01T05:41:16.469Z,1019.64
2022-12-01T05:41:49.147Z,1019.64
2022-12-01T05:42:20.884Z,1019.74
2022-12-01T05:42:43.263Z,1019.74
2022-12-01T05:43:06.398Z,1019.74
2022-12-01T05:43:42.578Z,1019.74
2022-12-01T05:44:13.528Z,1019.74
2022-12-01T05:44:44.696Z,1019.74
2022-12-01T05:45:17.092Z,1019.74
2022-12-01T05:45:49.024Z,1019.74
2022-12-01T05:46:20.789Z,1019.54
2022-12-01T05:46:43.334Z,1019.81
2022-12-01T05:47:06.254Z,1019.81
2022-12-01T05:47:42.096Z,1019.81
2022-12-01T05:48:12.980Z,1019.74
2022-12-01T05:48:45.291Z,1019.74
2022-12-01T05:49:16.865Z,1019.81
2022-12-01T05:49:49.087Z,1019.81
2022-12-01T05:50:20.488Z,1019.74
2022-12-01T05:50:43.350Z,1019.64
2022-12-01T05:51:05.706Z,1019.64
2022-12-01T05:51:40.599Z,1019.64
2022-12-01T05:52:12.677Z,1019.64
2022-12-01T05:52:45.401Z,1019.64
2022-12-01T05:53:17.388Z,1019.64
2022-12-01T05:53:49.059Z,1019.64
2022-12-01T05:54:20.836Z,1019.64
2022-12-01T05:54:43.558Z,1019.81
2022-12-01T05:55:06.546Z,1019.81
2022-12-01T05:55:44.880Z,1019.64
2022-12-01T05:56:06.868Z,1019.64
2022-12-01T05:56:44.889Z,1019.64
2022-12-01T05:57:16.530Z,1019.64
2022-12-01T05:57:48.472Z,1019.64
2022-12-01T05:58:20.598Z,1019.74
2022-12-01T05:58:43.347Z,1019.81
2022-12-01T05:59:05.735Z,1019.81
2022-12-01T05:59:40.555Z,1019.81
2022-12-01T06:00:12.873Z,1019.81
2022-12-01T06:00:46.233Z,1019.81
2022-12-01T06:01:16.885Z,1019.74
2022-12-01T06:01:48.596Z,1019.74
2022-12-01T06:02:20.708Z,1019.81
2022-12-01T06:02:43.895Z,1019.81
2022-12-01T06:03:06.365Z,1019.81